Chevak Airport

About
Name: Chevak Airport
Identifier:  VAK/PAVA
Owner:  State of Alaska DOT&PF - Central Region
Public/Private:  Public
Local Time:  18. Aug 05:28 AKDT
Description: Chevak Airport is a public airport located one mile north of the central business district of Chevak, a city in the Kusilvak Census Area of the U.S. state of Alaska. The airport is owned by the state.
Source: Wikipedia
Location
Runways
Identifier Length (m/ft) Surface
2/20 3,220/3,220 Gravel
Flights per Day
13 flights
Distance: 116km (72mi)
Punctuality
89% (1 flights per day delayed)
Delay Average: 46 minutes
Current Weather
 11 C (Humidity: 87%)
  11kt (20km/h / 12mph) from 30°
  16km (10 mi.)
 
 METAR PAVA 181256Z AUTO 03011KT 10SM CLR 11/09 A3047 RMK AO2 SLP403 T01110094 PNO $

Current Flights

Departures
Number Departure To Airline
Arrivals
Number Arrival From Airline
 GV293 16:05 +803  Hooper Bay Grant Aviation
 7H3131 17:50 +1210  Bethel Ravn Alaska

Current Delays

Departures
N/A
Arrivals
N/A

Destinations

Top Destinations
Airport Flights
per week
Seats
per week
  Eek (EEK) 0 - 0 0
  Bethel (BET) 0 - 0 0

Airlines & Planes

Top Airlines
Airline Flights
per Day
Seats
per Day
Ravn Alaska 0 -
Top Plane Types
Model Flights Seats
Cessna C208 0.1/day - 0